sensor_id;sensor_type;location;lat;lon;timestamp;temperature;humidity
22071;DHT22;11200;51.488;6.668;2022-12-18T00:01:21;-5.10;99.90
22071;DHT22;11200;51.488;6.668;2022-12-18T00:03:47;-4.80;99.90
22071;DHT22;11200;51.488;6.668;2022-12-18T00:06:13;-5.10;99.90
22071;DHT22;11200;51.488;6.668;2022-12-18T00:08:39;-5.10;99.90
22071;DHT22;11200;51.488;6.668;2022-12-18T00:11:06;-5.10;99.90
22071;DHT22;11200;51.488;6.668;2022-12-18T00:13:32;-5.10;99.90
22071;DHT22;11200;51.488;6.668;2022-12-18T00:16:03;-4.90;99.90
22071;DHT22;11200;51.488;6.668;2022-12-18T00:18:29;-4.80;99.90
22071;DHT22;11200;51.488;6.668;2022-12-18T00:20:58;-5.10;99.90
22071;DHT22;11200;51.488;6.668;2022-12-18T00:23:24;-4.90;99.90
22071;DHT22;11200;51.488;6.668;2022-12-18T00:25:50;-4.90;99.90
22071;DHT22;11200;51.488;6.668;2022-12-18T00:28:15;-5.30;99.90
22071;DHT22;11200;51.488;6.668;2022-12-18T00:30:41;-4.90;99.90
22071;DHT22;11200;51.488;6.668;2022-12-18T00:33:06;-4.90;99.90
22071;DHT22;11200;51.488;6.668;2022-12-18T00:35:32;-4.90;99.90
22071;DHT22;11200;51.488;6.668;2022-12-18T00:37:57;-5.10;99.90
22071;DHT22;11200;51.488;6.668;2022-12-18T00:40:23;-4.90;99.90
22071;DHT22;11200;51.488;6.668;2022-12-18T00:42:48;-5.10;99.90
22071;DHT22;11200;51.488;6.668;2022-12-18T00:45:25;-4.80;99.90
22071;DHT22;11200;51.488;6.668;2022-12-18T00:47:50;-5.30;99.90
22071;DHT22;11200;51.488;6.668;2022-12-18T00:50:16;-5.00;99.90
22071;DHT22;11200;51.488;6.668;2022-12-18T00:52:42;-4.70;99.90
22071;DHT22;11200;51.488;6.668;2022-12-18T00:55:09;-4.90;99.90
22071;DHT22;11200;51.488;6.668;2022-12-18T00:57:35;-4.90;99.90
22071;DHT22;11200;51.488;6.668;2022-12-18T01:00:01;-4.90;99.90
22071;DHT22;11200;51.488;6.668;2022-12-18T01:02:27;-4.90;99.90
22071;DHT22;11200;51.488;6.668;2022-12-18T01:04:52;-4.90;99.90
22071;DHT22;11200;51.488;6.668;2022-12-18T01:07:19;-4.90;99.90
22071;DHT22;11200;51.488;6.668;2022-12-18T01:09:44;-4.90;99.90
22071;DHT22;11200;51.488;6.668;2022-12-18T01:12:10;-4.80;99.90
22071;DHT22;11200;51.488;6.668;2022-12-18T01:14:37;-4.70;99.90
22071;DHT22;11200;51.488;6.668;2022-12-18T01:17:03;-4.70;99.90
22071;DHT22;11200;51.488;6.668;2022-12-18T01:19:29;-4.70;99.90
22071;DHT22;11200;51.488;6.668;2022-12-18T01:21:55;-4.60;99.90
22071;DHT22;11200;51.488;6.668;2022-12-18T01:24:20;-4.60;99.90
22071;DHT22;11200;51.488;6.668;2022-12-18T01:26:46;-4.60;99.90
22071;DHT22;11200;51.488;6.668;2022-12-18T01:29:11;-4.60;99.90
22071;DHT22;11200;51.488;6.668;2022-12-18T01:31:37;-4.80;99.90
22071;DHT22;11200;51.488;6.668;2022-12-18T01:34:04;-4.10;99.90
22071;DHT22;11200;51.488;6.668;2022-12-18T01:36:32;-4.60;99.90
22071;DHT22;11200;51.488;6.668;2022-12-18T01:39:06;-4.90;99.90
22071;DHT22;11200;51.488;6.668;2022-12-18T01:41:33;-4.70;99.90
22071;DHT22;11200;51.488;6.668;2022-12-18T01:50:27;-4.60;99.90
22071;DHT22;11200;51.488;6.668;2022-12-18T01:52:56;-4.70;99.90
22071;DHT22;11200;51.488;6.668;2022-12-18T01:55:25;-4.70;99.90
22071;DHT22;11200;51.488;6.668;2022-12-18T01:57:55;-4.90;99.90
22071;DHT22;11200;51.488;6.668;2022-12-18T02:00:22;-4.90;99.90
22071;DHT22;11200;51.488;6.668;2022-12-18T02:02:48;-4.70;99.90
22071;DHT22;11200;51.488;6.668;2022-12-18T02:05:18;-4.70;99.90
22071;DHT22;11200;51.488;6.668;2022-12-18T02:13:14;-4.80;99.90
22071;DHT22;11200;51.488;6.668;2022-12-18T02:16:28;-4.80;99.90
22071;DHT22;11200;51.488;6.668;2022-12-18T02:19:03;-4.80;99.90
22071;DHT22;11200;51.488;6.668;2022-12-18T02:24:24;-4.80;99.90
22071;DHT22;11200;51.488;6.668;2022-12-18T02:27:03;-4.40;99.90
22071;DHT22;11200;51.488;6.668;2022-12-18T02:30:03;-4.80;99.90
22071;DHT22;11200;51.488;6.668;2022-12-18T02:32:32;-4.80;99.90
22071;DHT22;11200;51.488;6.668;2022-12-18T02:35:03;-5.10;99.90
22071;DHT22;11200;51.488;6.668;2022-12-18T02:37:30;-4.80;99.90
22071;DHT22;11200;51.488;6.668;2022-12-18T02:39:57;-5.00;99.90
22071;DHT22;11200;51.488;6.668;2022-12-18T02:42:24;-5.10;99.90
22071;DHT22;11200;51.488;6.668;2022-12-18T02:44:51;-4.60;99.90
22071;DHT22;11200;51.488;6.668;2022-12-18T02:47:21;-4.80;99.90
22071;DHT22;11200;51.488;6.668;2022-12-18T03:01:07;-4.70;99.90
22071;DHT22;11200;51.488;6.668;2022-12-18T03:03:49;-4.90;99.90
22071;DHT22;11200;51.488;6.668;2022-12-18T03:06:40;-4.60;99.90
22071;DHT22;11200;51.488;6.668;2022-12-18T03:09:10;-4.80;99.90
22071;DHT22;11200;51.488;6.668;2022-12-18T03:11:41;-4.70;99.90
22071;DHT22;11200;51.488;6.668;2022-12-18T03:14:30;-4.80;99.90
22071;DHT22;11200;51.488;6.668;2022-12-18T03:17:00;-4.70;99.90
22071;DHT22;11200;51.488;6.668;2022-12-18T03:19:29;-4.60;99.90
22071;DHT22;11200;51.488;6.668;2022-12-18T03:21:59;-4.80;99.90
22071;DHT22;11200;51.488;6.668;2022-12-18T03:24:28;-4.60;99.90
22071;DHT22;11200;51.488;6.668;2022-12-18T03:27:02;-4.80;99.90
22071;DHT22;11200;51.488;6.668;2022-12-18T03:32:10;-2.50;99.90
22071;DHT22;11200;51.488;6.668;2022-12-18T03:34:38;-4.60;99.90
22071;DHT22;11200;51.488;6.668;2022-12-18T03:37:06;-4.60;99.90
22071;DHT22;11200;51.488;6.668;2022-12-18T03:39:33;-4.60;99.90
22071;DHT22;11200;51.488;6.668;2022-12-18T03:47:40;-4.50;99.90
22071;DHT22;11200;51.488;6.668;2022-12-18T03:50:24;-4.80;99.90
22071;DHT22;11200;51.488;6.668;2022-12-18T03:52:57;-4.60;99.90
22071;DHT22;11200;51.488;6.668;2022-12-18T03:55:28;-4.20;99.90
22071;DHT22;11200;51.488;6.668;2022-12-18T03:57:57;-4.70;99.90
22071;DHT22;11200;51.488;6.668;2022-12-18T04:00:23;-4.70;99.90
22071;DHT22;11200;51.488;6.668;2022-12-18T04:02:54;-4.50;99.90
22071;DHT22;11200;51.488;6.668;2022-12-18T04:05:21;-4.50;99.90
22071;DHT22;11200;51.488;6.668;2022-12-18T04:07:49;-4.50;99.90
22071;DHT22;11200;51.488;6.668;2022-12-18T04:10:16;-4.70;99.90
22071;DHT22;11200;51.488;6.668;2022-12-18T04:12:42;-4.60;99.90
22071;DHT22;11200;51.488;6.668;2022-12-18T04:15:09;-4.40;99.90
22071;DHT22;11200;51.488;6.668;2022-12-18T04:17:35;-4.40;99.90
22071;DHT22;11200;51.488;6.668;2022-12-18T04:20:01;-4.60;99.90
22071;DHT22;11200;51.488;6.668;2022-12-18T04:22:26;-4.40;99.90
22071;DHT22;11200;51.488;6.668;2022-12-18T04:24:52;-4.60;99.90
22071;DHT22;11200;51.488;6.668;2022-12-18T04:27:17;-3.70;99.90
22071;DHT22;11200;51.488;6.668;2022-12-18T04:29:43;-4.30;99.90
22071;DHT22;11200;51.488;6.668;2022-12-18T04:32:09;-4.30;99.90
22071;DHT22;11200;51.488;6.668;2022-12-18T04:34:34;-3.40;99.90
22071;DHT22;11200;51.488;6.668;2022-12-18T04:37:00;-4.20;99.90
22071;DHT22;11200;51.488;6.668;2022-12-18T04:39:26;-4.20;99.90
22071;DHT22;11200;51.488;6.668;2022-12-18T04:41:51;-4.40;99.90
22071;DHT22;11200;51.488;6.668;2022-12-18T04:44:17;-4.20;99.90
22071;DHT22;11200;51.488;6.668;2022-12-18T04:46:42;-4.20;99.90
22071;DHT22;11200;51.488;6.668;2022-12-18T04:49:08;-4.20;99.90
22071;DHT22;11200;51.488;6.668;2022-12-18T04:51:35;-4.80;99.90
22071;DHT22;11200;51.488;6.668;2022-12-18T04:54:01;-4.20;99.90
22071;DHT22;11200;51.488;6.668;2022-12-18T04:56:27;-2.50;99.90
22071;DHT22;11200;51.488;6.668;2022-12-18T04:58:53;-4.10;99.90
22071;DHT22;11200;51.488;6.668;2022-12-18T05:01:18;-4.10;99.90
22071;DHT22;11200;51.488;6.668;2022-12-18T05:03:44;-4.10;99.90
22071;DHT22;11200;51.488;6.668;2022-12-18T05:06:10;-4.30;99.90
22071;DHT22;11200;51.488;6.668;2022-12-18T05:08:36;-4.30;99.90
22071;DHT22;11200;51.488;6.668;2022-12-18T05:11:06;-2.40;99.90
22071;DHT22;11200;51.488;6.668;2022-12-18T05:13:33;-4.30;99.90
22071;DHT22;11200;51.488;6.668;2022-12-18T05:15:59;-4.20;99.90
22071;DHT22;11200;51.488;6.668;2022-12-18T05:18:25;-4.00;99.90
22071;DHT22;11200;51.488;6.668;2022-12-18T05:20:52;-4.20;99.90
22071;DHT22;11200;51.488;6.668;2022-12-18T05:23:19;-4.20;99.90
22071;DHT22;11200;51.488;6.668;2022-12-18T05:28:17;-2.50;99.90
22071;DHT22;11200;51.488;6.668;2022-12-18T05:30:50;-4.10;99.90
22071;DHT22;11200;51.488;6.668;2022-12-18T05:33:20;-5.00;99.90
22071;DHT22;11200;51.488;6.668;2022-12-18T05:35:54;-4.10;99.90
22071;DHT22;11200;51.488;6.668;2022-12-18T05:38:21;-4.10;99.90
22071;DHT22;11200;51.488;6.668;2022-12-18T05:40:48;-3.60;99.90
22071;DHT22;11200;51.488;6.668;2022-12-18T05:43:14;-4.10;99.90
22071;DHT22;11200;51.488;6.668;2022-12-18T05:45:40;-4.10;99.90
22071;DHT22;11200;51.488;6.668;2022-12-18T05:48:06;-4.10;99.90
22071;DHT22;11200;51.488;6.668;2022-12-18T05:50:36;-3.90;99.90
22071;DHT22;11200;51.488;6.668;2022-12-18T05:53:03;-1.80;99.90
22071;DHT22;11200;51.488;6.668;2022-12-18T05:55:32;-4.10;99.90
22071;DHT22;11200;51.488;6.668;2022-12-18T05:57:58;-4.10;99.90
22071;DHT22;11200;51.488;6.668;2022-12-18T06:00:23;-3.90;99.90
22071;DHT22;11200;51.488;6.668;2022-12-18T06:02:49;-3.90;99.90
22071;DHT22;11200;51.488;6.668;2022-12-18T06:05:15;-4.20;99.90
22071;DHT22;11200;51.488;6.668;2022-12-18T06:07:40;-4.10;99.90
22071;DHT22;11200;51.488;6.668;2022-12-18T06:10:06;-4.00;99.90
22071;DHT22;11200;51.488;6.668;2022-12-18T06:12:32;-3.90;99.90
22071;DHT22;11200;51.488;6.668;2022-12-18T06:14:59;-4.00;99.90
22071;DHT22;11200;51.488;6.668;2022-12-18T06:17:30;-4.00;99.90
22071;DHT22;11200;51.488;6.668;2022-12-18T06:19:56;-4.20;99.90
22071;DHT22;11200;51.488;6.668;2022-12-18T06:22:22;-4.00;99.90
22071;DHT22;11200;51.488;6.668;2022-12-18T06:24:48;-4.10;99.90
22071;DHT22;11200;51.488;6.668;2022-12-18T06:27:14;-4.30;99.90
22071;DHT22;11200;51.488;6.668;2022-12-18T06:29:40;-4.10;99.90
22071;DHT22;11200;51.488;6.668;2022-12-18T06:32:05;-4.20;99.90
22071;DHT22;11200;51.488;6.668;2022-12-18T06:34:31;-4.10;99.90
22071;DHT22;11200;51.488;6.668;2022-12-18T06:36:58;-4.30;99.90
22071;DHT22;11200;51.488;6.668;2022-12-18T06:39:23;-4.30;99.90
22071;DHT22;11200;51.488;6.668;2022-12-18T06:41:49;-2.20;99.90
22071;DHT22;11200;51.488;6.668;2022-12-18T06:44:15;-5.20;99.90
22071;DHT22;11200;51.488;6.668;2022-12-18T06:46:40;-4.30;99.90
22071;DHT22;11200;51.488;6.668;2022-12-18T06:49:06;-4.20;99.90
22071;DHT22;11200;51.488;6.668;2022-12-18T06:51:35;-4.50;99.90
22071;DHT22;11200;51.488;6.668;2022-12-18T06:54:00;-4.40;99.90
22071;DHT22;11200;51.488;6.668;2022-12-18T06:56:29;-5.00;99.90
22071;DHT22;11200;51.488;6.668;2022-12-18T06:58:54;-4.40;99.90
22071;DHT22;11200;51.488;6.668;2022-12-18T07:01:21;-4.60;99.90
22071;DHT22;11200;51.488;6.668;2022-12-18T07:03:46;-4.40;99.90
22071;DHT22;11200;51.488;6.668;2022-12-18T07:06:18;-4.50;99.90
22071;DHT22;11200;51.488;6.668;2022-12-18T07:08:47;-4.40;99.90
22071;DHT22;11200;51.488;6.668;2022-12-18T07:11:14;-2.50;99.90
22071;DHT22;11200;51.488;6.668;2022-12-18T07:13:39;-4.60;99.90
22071;DHT22;11200;51.488;6.668;2022-12-18T07:16:09;-4.50;99.90
22071;DHT22;11200;51.488;6.668;2022-12-18T07:18:35;-4.50;99.90
22071;DHT22;11200;51.488;6.668;2022-12-18T07:21:09;-4.50;99.90
22071;DHT22;11200;51.488;6.668;2022-12-18T07:23:35;-4.60;99.90
22071;DHT22;11200;51.488;6.668;2022-12-18T07:26:05;-4.60;99.90
22071;DHT22;11200;51.488;6.668;2022-12-18T07:28:32;-4.50;99.90
22071;DHT22;11200;51.488;6.668;2022-12-18T07:31:01;-4.50;99.90
22071;DHT22;11200;51.488;6.668;2022-12-18T07:33:27;-4.70;99.90
22071;DHT22;11200;51.488;6.668;2022-12-18T07:35:52;-4.90;99.90
22071;DHT22;11200;51.488;6.668;2022-12-18T07:38:18;-4.80;99.90
22071;DHT22;11200;51.488;6.668;2022-12-18T07:40:43;-4.80;99.90
22071;DHT22;11200;51.488;6.668;2022-12-18T07:43:09;-4.80;99.90
22071;DHT22;11200;51.488;6.668;2022-12-18T07:45:35;-4.80;99.90
22071;DHT22;11200;51.488;6.668;2022-12-18T07:48:00;-4.60;99.90
22071;DHT22;11200;51.488;6.668;2022-12-18T07:50:26;-4.80;99.90
22071;DHT22;11200;51.488;6.668;2022-12-18T07:52:51;-4.70;99.90
22071;DHT22;11200;51.488;6.668;2022-12-18T07:55:17;-4.80;99.90
22071;DHT22;11200;51.488;6.668;2022-12-18T07:57:42;-4.60;99.90
22071;DHT22;11200;51.488;6.668;2022-12-18T08:00:08;-4.90;99.90
22071;DHT22;11200;51.488;6.668;2022-12-18T08:02:34;-4.60;99.90
22071;DHT22;11200;51.488;6.668;2022-12-18T08:05:00;-4.60;99.90
22071;DHT22;11200;51.488;6.668;2022-12-18T08:07:25;-4.60;99.90
22071;DHT22;11200;51.488;6.668;2022-12-18T08:09:51;-4.80;99.90
22071;DHT22;11200;51.488;6.668;2022-12-18T08:12:16;-4.50;99.90
22071;DHT22;11200;51.488;6.668;2022-12-18T08:14:42;-4.60;99.90
22071;DHT22;11200;51.488;6.668;2022-12-18T08:17:07;-4.50;99.90
22071;DHT22;11200;51.488;6.668;2022-12-18T08:19:36;-4.50;99.90
22071;DHT22;11200;51.488;6.668;2022-12-18T08:22:01;-4.40;99.90
22071;DHT22;11200;51.488;6.668;2022-12-18T08:24:27;-4.40;99.90
22071;DHT22;11200;51.488;6.668;2022-12-18T08:26:53;-4.30;99.90
22071;DHT22;11200;51.488;6.668;2022-12-18T08:29:18;-4.30;99.90
22071;DHT22;11200;51.488;6.668;2022-12-18T08:31:47;-4.20;99.90
22071;DHT22;11200;51.488;6.668;2022-12-18T08:34:13;-4.20;99.90
22071;DHT22;11200;51.488;6.668;2022-12-18T08:36:38;-4.20;99.90
22071;DHT22;11200;51.488;6.668;2022-12-18T08:39:04;-4.30;99.90
22071;DHT22;11200;51.488;6.668;2022-12-18T08:41:30;-4.30;99.90
22071;DHT22;11200;51.488;6.668;2022-12-18T08:43:55;-4.20;99.90
22071;DHT22;11200;51.488;6.668;2022-12-18T08:46:41;-4.10;99.90
22071;DHT22;11200;51.488;6.668;2022-12-18T08:49:08;-3.80;99.90
22071;DHT22;11200;51.488;6.668;2022-12-18T08:51:34;-3.80;99.90
22071;DHT22;11200;51.488;6.668;2022-12-18T08:54:01;-3.50;99.90
22071;DHT22;11200;51.488;6.668;2022-12-18T08:56:27;-3.60;99.90
22071;DHT22;11200;51.488;6.668;2022-12-18T08:58:54;-3.60;99.90
22071;DHT22;11200;51.488;6.668;2022-12-18T09:01:20;-3.60;99.90
22071;DHT22;11200;51.488;6.668;2022-12-18T09:03:45;-3.40;99.90
22071;DHT22;11200;51.488;6.668;2022-12-18T09:06:17;-3.30;99.90
22071;DHT22;11200;51.488;6.668;2022-12-18T09:08:44;-3.20;99.90
22071;DHT22;11200;51.488;6.668;2022-12-18T09:11:15;-3.20;99.90
22071;DHT22;11200;51.488;6.668;2022-12-18T09:13:43;-3.10;99.90
22071;DHT22;11200;51.488;6.668;2022-12-18T09:16:09;-3.00;99.90
22071;DHT22;11200;51.488;6.668;2022-12-18T09:18:35;-2.90;99.90
22071;DHT22;11200;51.488;6.668;2022-12-18T09:21:08;-2.90;99.90
22071;DHT22;11200;51.488;6.668;2022-12-18T09:23:33;-2.80;99.90
22071;DHT22;11200;51.488;6.668;2022-12-18T09:25:59;-2.70;99.90
22071;DHT22;11200;51.488;6.668;2022-12-18T09:28:30;-2.60;99.90
22071;DHT22;11200;51.488;6.668;2022-12-18T09:30:56;-2.50;99.90
22071;DHT22;11200;51.488;6.668;2022-12-18T09:33:22;-3.00;99.90
22071;DHT22;11200;51.488;6.668;2022-12-18T09:35:47;-2.30;99.90
22071;DHT22;11200;51.488;6.668;2022-12-18T09:38:18;-2.10;99.90
22071;DHT22;11200;51.488;6.668;2022-12-18T09:40:49;-0.70;99.90
22071;DHT22;11200;51.488;6.668;2022-12-18T09:43:26;-0.20;99.90
22071;DHT22;11200;51.488;6.668;2022-12-18T09:48:49;-2.40;99.90
22071;DHT22;11200;51.488;6.668;2022-12-18T09:51:19;-0.70;99.90
22071;DHT22;11200;51.488;6.668;2022-12-18T09:53:53;-1.50;99.90
22071;DHT22;11200;51.488;6.668;2022-12-18T09:56:22;-1.10;99.90
22071;DHT22;11200;51.488;6.668;2022-12-18T09:58:58;0.90;99.90
22071;DHT22;11200;51.488;6.668;2022-12-18T10:01:25;-1.30;99.90
22071;DHT22;11200;51.488;6.668;2022-12-18T10:03:52;-0.60;99.90
22071;DHT22;11200;51.488;6.668;2022-12-18T10:06:29;-1.10;99.90
22071;DHT22;11200;51.488;6.668;2022-12-18T10:09:18;-0.40;99.90
22071;DHT22;11200;51.488;6.668;2022-12-18T10:12:02;-0.30;99.90
22071;DHT22;11200;51.488;6.668;2022-12-18T10:20:13;-0.10;99.90
22071;DHT22;11200;51.488;6.668;2022-12-18T10:22:50;-0.10;99.90
22071;DHT22;11200;51.488;6.668;2022-12-18T10:25:22;0.00;99.90
22071;DHT22;11200;51.488;6.668;2022-12-18T10:27:52;0.00;99.90
22071;DHT22;11200;51.488;6.668;2022-12-18T10:30:21;0.00;99.90
22071;DHT22;11200;51.488;6.668;2022-12-18T10:32:47;0.10;99.90
22071;DHT22;11200;51.488;6.668;2022-12-18T10:35:25;0.10;99.90
22071;DHT22;11200;51.488;6.668;2022-12-18T10:43:25;0.30;99.90
22071;DHT22;11200;51.488;6.668;2022-12-18T10:46:00;0.30;99.90
22071;DHT22;11200;51.488;6.668;2022-12-18T10:48:27;0.30;99.90
22071;DHT22;11200;51.488;6.668;2022-12-18T10:50:53;0.40;99.90
22071;DHT22;11200;51.488;6.668;2022-12-18T10:53:24;0.50;99.90
22071;DHT22;11200;51.488;6.668;2022-12-18T10:55:52;0.50;99.90
22071;DHT22;11200;51.488;6.668;2022-12-18T10:58:26;0.60;99.90
22071;DHT22;11200;51.488;6.668;2022-12-18T11:01:09;0.60;99.90
22071;DHT22;11200;51.488;6.668;2022-12-18T11:06:23;0.70;99.90
22071;DHT22;11200;51.488;6.668;2022-12-18T11:09:18;0.70;99.90
22071;DHT22;11200;51.488;6.668;2022-12-18T11:11:53;0.70;99.90
22071;DHT22;11200;51.488;6.668;2022-12-18T11:14:23;0.70;99.90
22071;DHT22;11200;51.488;6.668;2022-12-18T11:16:51;0.70;99.90
22071;DHT22;11200;51.488;6.668;2022-12-18T11:19:33;0.70;99.90
22071;DHT22;11200;51.488;6.668;2022-12-18T11:22:01;0.70;99.90
22071;DHT22;11200;51.488;6.668;2022-12-18T11:24:32;0.70;99.90
22071;DHT22;11200;51.488;6.668;2022-12-18T11:27:01;0.80;99.90
22071;DHT22;11200;51.488;6.668;2022-12-18T11:29:32;0.70;99.90
22071;DHT22;11200;51.488;6.668;2022-12-18T11:32:33;0.80;99.90
22071;DHT22;11200;51.488;6.668;2022-12-18T11:38:18;0.80;99.90
22071;DHT22;11200;51.488;6.668;2022-12-18T11:40:51;0.90;99.90
22071;DHT22;11200;51.488;6.668;2022-12-18T11:46:13;0.90;99.90
22071;DHT22;11200;51.488;6.668;2022-12-18T11:48:54;0.90;99.90
22071;DHT22;11200;51.488;6.668;2022-12-18T11:51:32;0.90;99.90
22071;DHT22;11200;51.488;6.668;2022-12-18T11:54:00;0.90;99.90
22071;DHT22;11200;51.488;6.668;2022-12-18T11:56:35;0.90;99.90
22071;DHT22;11200;51.488;6.668;2022-12-18T12:10:15;1.00;99.90
22071;DHT22;11200;51.488;6.668;2022-12-18T12:18:56;1.00;99.90
22071;DHT22;11200;51.488;6.668;2022-12-18T12:24:28;1.00;99.90
22071;DHT22;11200;51.488;6.668;2022-12-18T12:32:17;1.10;99.90
22071;DHT22;11200;51.488;6.668;2022-12-18T12:35:05;1.10;99.90
22071;DHT22;11200;51.488;6.668;2022-12-18T12:40:19;1.10;99.90
22071;DHT22;11200;51.488;6.668;2022-12-18T12:45:58;1.10;99.90
22071;DHT22;11200;51.488;6.668;2022-12-18T12:49:27;1.10;99.90
22071;DHT22;11200;51.488;6.668;2022-12-18T12:53:52;1.10;99.90
22071;DHT22;11200;51.488;6.668;2022-12-18T12:56:20;1.00;99.90
22071;DHT22;11200;51.488;6.668;2022-12-18T12:58:49;1.10;99.90
22071;DHT22;11200;51.488;6.668;2022-12-18T13:01:52;0.50;99.90
22071;DHT22;11200;51.488;6.668;2022-12-18T13:04:21;1.20;99.90
22071;DHT22;11200;51.488;6.668;2022-12-18T13:09:30;1.20;99.90
22071;DHT22;11200;51.488;6.668;2022-12-18T13:12:02;1.10;99.90
22071;DHT22;11200;51.488;6.668;2022-12-18T13:14:47;1.20;99.90
22071;DHT22;11200;51.488;6.668;2022-12-18T13:19:55;2.60;99.90
22071;DHT22;11200;51.488;6.668;2022-12-18T13:22:56;1.20;99.90
22071;DHT22;11200;51.488;6.668;2022-12-18T13:25:39;1.20;99.90
22071;DHT22;11200;51.488;6.668;2022-12-18T13:38:38;1.20;99.90
22071;DHT22;11200;51.488;6.668;2022-12-18T13:43:48;0.80;99.90
22071;DHT22;11200;51.488;6.668;2022-12-18T13:46:28;1.20;99.90
22071;DHT22;11200;51.488;6.668;2022-12-18T13:49:01;1.20;99.90
22071;DHT22;11200;51.488;6.668;2022-12-18T13:51:29;1.20;99.90
22071;DHT22;11200;51.488;6.668;2022-12-18T13:54:30;1.20;99.90
22071;DHT22;11200;51.488;6.668;2022-12-18T13:56:57;1.20;99.90
22071;DHT22;11200;51.488;6.668;2022-12-18T13:59:25;1.20;99.90
22071;DHT22;11200;51.488;6.668;2022-12-18T14:01:56;1.10;99.90
22071;DHT22;11200;51.488;6.668;2022-12-18T14:06:53;1.20;99.90
22071;DHT22;11200;51.488;6.668;2022-12-18T14:09:34;1.20;99.90
22071;DHT22;11200;51.488;6.668;2022-12-18T14:12:00;1.20;99.90
22071;DHT22;11200;51.488;6.668;2022-12-18T14:14:46;1.20;99.90
22071;DHT22;11200;51.488;6.668;2022-12-18T14:17:13;1.20;99.90
22071;DHT22;11200;51.488;6.668;2022-12-18T14:19:47;1.20;99.90
22071;DHT22;11200;51.488;6.668;2022-12-18T14:22:19;1.20;99.90
22071;DHT22;11200;51.488;6.668;2022-12-18T14:24:45;1.20;99.90
22071;DHT22;11200;51.488;6.668;2022-12-18T14:27:20;1.20;99.90
22071;DHT22;11200;51.488;6.668;2022-12-18T14:29:46;1.20;99.90
22071;DHT22;11200;51.488;6.668;2022-12-18T14:32:19;1.20;99.90
22071;DHT22;11200;51.488;6.668;2022-12-18T14:34:52;1.20;99.90
22071;DHT22;11200;51.488;6.668;2022-12-18T14:37:24;1.10;99.90
22071;DHT22;11200;51.488;6.668;2022-12-18T14:39:58;1.10;99.90
22071;DHT22;11200;51.488;6.668;2022-12-18T14:42:31;1.10;99.90
22071;DHT22;11200;51.488;6.668;2022-12-18T14:45:35;1.10;99.90
22071;DHT22;11200;51.488;6.668;2022-12-18T14:48:06;1.10;99.90
22071;DHT22;11200;51.488;6.668;2022-12-18T14:50:32;1.10;99.90
22071;DHT22;11200;51.488;6.668;2022-12-18T14:52:57;1.10;99.90
22071;DHT22;11200;51.488;6.668;2022-12-18T14:55:23;1.10;99.90
22071;DHT22;11200;51.488;6.668;2022-12-18T14:57:51;1.10;99.90
22071;DHT22;11200;51.488;6.668;2022-12-18T15:00:20;1.10;99.90
22071;DHT22;11200;51.488;6.668;2022-12-18T15:02:54;1.10;99.90
22071;DHT22;11200;51.488;6.668;2022-12-18T15:05:28;1.10;99.90
22071;DHT22;11200;51.488;6.668;2022-12-18T15:07:56;1.10;99.90
22071;DHT22;11200;51.488;6.668;2022-12-18T15:10:24;1.00;99.90
22071;DHT22;11200;51.488;6.668;2022-12-18T15:20:39;1.00;99.90
22071;DHT22;11200;51.488;6.668;2022-12-18T15:23:20;2.10;99.90
22071;DHT22;11200;51.488;6.668;2022-12-18T15:25:48;0.90;99.90
22071;DHT22;11200;51.488;6.668;2022-12-18T15:28:35;0.90;99.90
22071;DHT22;11200;51.488;6.668;2022-12-18T15:33:44;0.90;99.90
22071;DHT22;11200;51.488;6.668;2022-12-18T15:36:16;0.90;99.90
22071;DHT22;11200;51.488;6.668;2022-12-18T15:38:47;0.90;99.90
22071;DHT22;11200;51.488;6.668;2022-12-18T15:41:17;0.80;99.90
22071;DHT22;11200;51.488;6.668;2022-12-18T15:43:44;0.80;99.90
22071;DHT22;11200;51.488;6.668;2022-12-18T15:48:45;0.80;99.90
22071;DHT22;11200;51.488;6.668;2022-12-18T15:51:20;0.80;99.90
22071;DHT22;11200;51.488;6.668;2022-12-18T15:53:48;0.80;99.90
22071;DHT22;11200;51.488;6.668;2022-12-18T15:56:15;0.80;99.90
22071;DHT22;11200;51.488;6.668;2022-12-18T15:59:00;0.80;99.90
22071;DHT22;11200;51.488;6.668;2022-12-18T16:01:29;0.60;99.90
22071;DHT22;11200;51.488;6.668;2022-12-18T16:03:55;0.80;99.90
22071;DHT22;11200;51.488;6.668;2022-12-18T16:06:24;0.70;99.90
22071;DHT22;11200;51.488;6.668;2022-12-18T16:08:50;0.70;99.90
22071;DHT22;11200;51.488;6.668;2022-12-18T16:11:25;0.70;99.90
22071;DHT22;11200;51.488;6.668;2022-12-18T16:14:33;0.70;99.90
22071;DHT22;11200;51.488;6.668;2022-12-18T16:17:01;0.70;99.90
22071;DHT22;11200;51.488;6.668;2022-12-18T16:19:28;0.70;99.90
22071;DHT22;11200;51.488;6.668;2022-12-18T16:21:55;0.70;99.90
22071;DHT22;11200;51.488;6.668;2022-12-18T16:24:23;0.70;99.90
22071;DHT22;11200;51.488;6.668;2022-12-18T16:26:50;0.70;99.90
22071;DHT22;11200;51.488;6.668;2022-12-18T16:29:17;0.70;99.90
22071;DHT22;11200;51.488;6.668;2022-12-18T16:31:43;0.60;99.90
22071;DHT22;11200;51.488;6.668;2022-12-18T16:34:28;1.00;99.90
22071;DHT22;11200;51.488;6.668;2022-12-18T16:37:03;0.70;99.90
22071;DHT22;11200;51.488;6.668;2022-12-18T16:39:29;0.70;99.90
22071;DHT22;11200;51.488;6.668;2022-12-18T16:41:56;-0.10;99.90
22071;DHT22;11200;51.488;6.668;2022-12-18T16:44:22;0.50;99.90
22071;DHT22;11200;51.488;6.668;2022-12-18T16:46:47;0.00;99.90
22071;DHT22;11200;51.488;6.668;2022-12-18T16:49:17;1.60;99.90
22071;DHT22;11200;51.488;6.668;2022-12-18T16:51:43;0.40;99.90
22071;DHT22;11200;51.488;6.668;2022-12-18T16:54:09;0.60;99.90
22071;DHT22;11200;51.488;6.668;2022-12-18T16:56:35;0.60;99.90
22071;DHT22;11200;51.488;6.668;2022-12-18T16:59:02;0.60;99.90
22071;DHT22;11200;51.488;6.668;2022-12-18T17:01:29;0.60;99.90
22071;DHT22;11200;51.488;6.668;2022-12-18T17:03:59;0.60;99.90
22071;DHT22;11200;51.488;6.668;2022-12-18T17:06:29;0.50;99.90
22071;DHT22;11200;51.488;6.668;2022-12-18T17:08:59;0.50;99.90
22071;DHT22;11200;51.488;6.668;2022-12-18T17:11:26;0.90;99.90
22071;DHT22;11200;51.488;6.668;2022-12-18T17:14:04;0.40;99.90
22071;DHT22;11200;51.488;6.668;2022-12-18T17:16:30;1.90;99.90
22071;DHT22;11200;51.488;6.668;2022-12-18T17:18:55;1.60;99.90
22071;DHT22;11200;51.488;6.668;2022-12-18T17:21:21;0.50;99.90
22071;DHT22;11200;51.488;6.668;2022-12-18T17:23:47;0.00;99.90
22071;DHT22;11200;51.488;6.668;2022-12-18T17:26:13;0.60;99.90
22071;DHT22;11200;51.488;6.668;2022-12-18T17:28:40;0.40;99.90
22071;DHT22;11200;51.488;6.668;2022-12-18T17:31:19;0.50;99.90
22071;DHT22;11200;51.488;6.668;2022-12-18T17:33:46;0.40;99.90
22071;DHT22;11200;51.488;6.668;2022-12-18T17:36:13;0.50;99.90
22071;DHT22;11200;51.488;6.668;2022-12-18T17:38:41;0.40;99.90
22071;DHT22;11200;51.488;6.668;2022-12-18T17:41:09;0.50;99.90
22071;DHT22;11200;51.488;6.668;2022-12-18T17:43:37;0.50;99.90
22071;DHT22;11200;51.488;6.668;2022-12-18T17:46:10;1.50;99.90
22071;DHT22;11200;51.488;6.668;2022-12-18T17:48:36;1.10;99.90
22071;DHT22;11200;51.488;6.668;2022-12-18T17:54:30;0.70;99.90
22071;DHT22;11200;51.488;6.668;2022-12-18T17:57:06;1.60;99.90
22071;DHT22;11200;51.488;6.668;2022-12-18T17:59:44;0.50;99.90
22071;DHT22;11200;51.488;6.668;2022-12-18T18:02:17;0.60;99.90
22071;DHT22;11200;51.488;6.668;2022-12-18T18:04:49;0.60;99.90